Time;durP1;ratioP1;P1;durP2;ratioP2;P2;SDS_P1;SDS_P2;PMS_P1;PMS_P2;Temp;Humidity;BMP_temperature;BMP_pressure;BME280_temperature;BME280_humidity;BME280_pressure;Samples;Min_cycle;Max_cycle;Signal;HPM_P1;HPM_P2
2022/05/11 00:02:06;;;;;;;;;5.75;5.75;;;;;22.87;42.05;100729.59;6206725;22;45693;-77
2022/05/11 00:04:34;;;;;;;;;9.50;9.00;;;;;22.82;41.66;100737.31;6207222;22;45615;-77
2022/05/11 00:07:08;;;;;;;;;7.50;7.50;;;;;22.78;41.23;100732.53;6206857;22;45752;-77
2022/05/11 00:09:34;;;;;;;;;6.50;6.50;;;;;22.71;41.78;100726.25;6207351;22;45793;-77
2022/05/11 00:11:59;;;;;;;;;7.75;7.75;;;;;22.71;42.14;100731.59;6181087;22;46537;-77
2022/05/11 00:14:24;;;;;;;;;8.50;8.00;;;;;22.68;42.11;100734.59;6206528;22;46958;-77
2022/05/11 00:19:47;;;;;;;;;7.75;7.25;;;;;22.52;41.85;100712.41;6207124;22;45506;-75
2022/05/11 00:22:12;;;;;;;;;8.50;7.25;;;;;22.49;42.65;100711.97;6207210;22;45621;-74
2022/05/11 00:24:38;;;;;;;;;6.25;6.25;;;;;22.43;42.90;100710.03;6194839;22;46856;-77
2022/05/11 00:27:31;;;;;;;;;8.00;7.00;;;;;22.41;42.56;100710.19;6302588;22;45474;-76
2022/05/11 00:33:52;;;;;;;;;9.00;8.00;;;;;22.27;42.63;100699.50;6089256;23;46519;-75
2022/05/11 00:36:17;;;;;;;;;6.50;6.50;;;;;22.16;43.07;100684.78;6089112;23;46074;-76
2022/05/11 00:46:43;;;;;;;;;9.50;8.00;;;;;22.12;43.34;100691.50;6292973;22;46656;-77
2022/05/11 00:49:33;;;;;;;;;8.50;8.50;;;;;22.04;43.76;100688.88;6300153;22;45645;-76
2022/05/11 00:52:08;;;;;;;;;8.00;6.75;;;;;22.00;43.99;100672.41;6272982;22;45832;-76
2022/05/11 00:54:39;;;;;;;;;9.00;9.00;;;;;21.98;43.82;100678.94;6299984;22;45625;-76
2022/05/11 00:57:18;;;;;;;;;9.25;8.25;;;;;21.89;43.60;100670.16;6300227;22;46003;-77
2022/05/11 00:59:48;;;;;;;;;7.75;7.50;;;;;21.87;43.64;100672.16;6299487;22;45886;-77
2022/05/11 01:02:14;;;;;;;;;9.50;8.50;;;;;21.83;44.25;100664.72;6300988;22;45495;-77
2022/05/11 01:08:16;;;;;;;;;6.75;6.75;;;;;21.58;44.61;100645.44;6147967;22;46055;-76
2022/05/11 01:14:41;;;;;;;;;6.50;6.50;;;;;21.55;44.08;100645.78;5970286;23;45801;-76
2022/05/11 01:17:07;;;;;;;;;8.75;8.00;;;;;21.60;44.60;100657.56;6049659;23;47449;-77
2022/05/11 01:19:39;;;;;;;;;11.00;8.50;;;;;21.58;44.49;100664.09;6055065;23;46244;-77
2022/05/11 01:22:50;;;;;;;;;6.75;6.50;;;;;21.53;44.91;100648.63;6055228;23;45666;-76
2022/05/11 01:25:17;;;;;;;;;3.25;2.50;;;;;21.49;44.94;100654.47;6055561;23;45776;-77
2022/05/11 01:27:45;;;;;;;;;9.00;8.00;;;;;21.43;44.74;100648.03;6030113;23;47406;-76
2022/05/11 01:30:40;;;;;;;;;9.50;8.00;;;;;21.39;44.99;100644.06;6054670;23;47037;-75
2022/05/11 01:33:06;;;;;;;;;5.75;5.75;;;;;21.32;45.04;100641.28;6030110;23;45684;-77
2022/05/11 01:35:48;;;;;;;;;9.50;8.75;;;;;21.31;44.69;100644.13;6055369;23;45634;-77
2022/05/11 01:41:22;;;;;;;;;9.75;9.50;;;;;21.23;45.05;100634.34;6025270;23;46322;-75
2022/05/11 01:43:49;;;;;;;;;9.00;8.50;;;;;21.26;45.22;100641.19;6073622;23;46215;-78
2022/05/11 01:46:27;;;;;;;;;8.25;7.75;;;;;21.23;45.24;100644.19;6117749;23;45826;-75
2022/05/11 01:48:53;;;;;;;;;9.25;9.00;;;;;21.17;44.96;100634.22;6171528;23;46487;-77
2022/05/11 01:52:02;;;;;;;;;9.50;8.25;;;;;21.03;45.15;100624.31;6173668;23;45834;-75
2022/05/11 01:54:27;;;;;;;;;8.75;8.00;;;;;21.08;45.36;100638.75;6147872;23;45776;-76
2022/05/11 01:56:52;;;;;;;;;9.00;8.00;;;;;21.11;45.26;100643.72;6173334;23;45525;-76
2022/05/11 01:59:18;;;;;;;;;12.00;10.00;;;;;21.07;45.37;100641.59;6146285;23;47503;-76
2022/05/11 02:01:46;;;;;;;;;8.00;8.00;;;;;21.07;45.35;100642.41;6172928;23;46683;-76
2022/05/11 02:09:44;;;;;;;;;8.00;8.00;;;;;21.06;45.69;100639.91;6172641;23;45922;-76
2022/05/11 02:12:13;;;;;;;;;6.75;6.25;;;;;21.05;45.47;100635.63;6173591;23;45696;-75
2022/05/11 02:14:41;;;;;;;;;8.50;7.75;;;;;21.07;45.33;100633.59;6173211;23;45803;-76
2022/05/11 02:17:06;;;;;;;;;10.50;9.50;;;;;21.07;45.30;100634.44;6173584;23;45737;-77
2022/05/11 02:19:32;;;;;;;;;8.50;8.50;;;;;21.08;45.49;100628.09;6294012;22;45930;-77
2022/05/11 02:22:09;;;;;;;;;7.50;7.50;;;;;21.09;45.33;100626.25;6271598;22;46380;-75
2022/05/11 02:24:34;;;;;;;;;7.50;7.00;;;;;21.13;45.24;100632.91;6270546;22;45709;-77
2022/05/11 02:27:03;;;;;;;;;9.00;9.00;;;;;21.07;45.26;100612.28;6270901;22;45750;-76
2022/05/11 02:29:31;;;;;;;;;8.00;8.00;;;;;21.14;45.50;100632.75;6295179;22;47601;-77
2022/05/11 02:32:03;;;;;;;;;8.25;7.75;;;;;21.14;46.13;100630.09;6271158;22;47245;-76
2022/05/11 02:37:12;;;;;;;;;9.00;6.50;;;;;21.12;46.19;100624.06;6298790;22;45916;-76
2022/05/11 02:39:41;;;;;;;;;11.00;9.00;;;;;21.09;46.30;100627.09;6298905;22;45599;-76
2022/05/11 02:46:03;;;;;;;;;9.25;8.50;;;;;20.81;46.17;100588.63;6114266;23;46464;-76
2022/05/11 02:48:31;;;;;;;;;8.25;8.00;;;;;20.87;46.19;100604.75;5998657;23;45655;-76
2022/05/11 02:50:57;;;;;;;;;11.00;9.75;;;;;20.86;46.89;100608.41;5997807;23;45577;-77
2022/05/11 02:53:26;;;;;;;;;9.50;8.50;;;;;20.72;47.05;100601.19;5998823;23;45977;-76
2022/05/11 02:55:55;;;;;;;;;10.75;10.00;;;;;20.65;47.02;100594.88;5974554;23;45847;-76
2022/05/11 03:08:31;;;;;;;;;10.25;9.75;;;;;20.23;47.44;100595.22;5877506;23;45812;-76
2022/05/11 03:10:59;;;;;;;;;11.00;9.50;;;;;20.33;47.59;100608.34;5886595;24;45612;-76
2022/05/11 03:13:28;;;;;;;;;10.25;10.00;;;;;20.28;47.64;100608.00;5886956;24;46373;-76
2022/05/11 03:15:57;;;;;;;;;10.00;9.00;;;;;20.30;48.17;100611.28;5887001;24;45949;-76
2022/05/11 03:18:22;;;;;;;;;13.00;11.50;;;;;20.27;48.34;100614.31;5887108;23;45818;-76
2022/05/11 03:20:47;;;;;;;;;9.50;9.00;;;;;20.22;48.14;100612.16;5886168;24;45635;-76
2022/05/11 03:23:13;;;;;;;;;9.75;9.00;;;;;20.18;48.38;100605.53;5944423;23;48122;-76
2022/05/11 03:25:38;;;;;;;;;11.25;11.25;;;;;20.13;48.69;100603.38;5991017;23;46483;-76
2022/05/11 03:28:04;;;;;;;;;9.00;9.00;;;;;20.12;48.85;100608.88;6056806;23;45724;-76
2022/05/11 03:31:15;;;;;;;;;10.50;10.00;;;;;20.06;48.81;100602.41;6056077;23;46028;-76
2022/05/11 03:40:22;;;;;;;;;11.50;9.00;;;;;19.95;48.87;100605.44;6044470;23;45870;-75
2022/05/11 03:42:47;;;;;;;;;12.00;10.50;;;;;19.85;49.37;100591.50;6056856;23;45729;-75
2022/05/11 03:45:18;;;;;;;;;11.25;10.00;;;;;19.84;48.91;100594.31;6031437;23;45664;-76
2022/05/11 03:47:50;;;;;;;;;10.75;9.50;;;;;19.95;48.92;100608.09;6006670;23;48067;-76
2022/05/11 03:50:19;;;;;;;;;9.75;9.25;;;;;19.96;48.95;100607.09;6054790;23;46065;-75
2022/05/11 03:52:45;;;;;;;;;12.00;10.00;;;;;19.94;49.10;100601.09;6031550;23;45682;-76
2022/05/11 03:55:11;;;;;;;;;10.50;10.00;;;;;19.97;48.84;100599.94;6031195;23;46419;-76
2022/05/11 03:57:38;;;;;;;;;9.00;9.00;;;;;19.98;49.18;100598.94;6055195;23;46717;-74
2022/05/11 04:00:08;;;;;;;;;11.00;10.50;;;;;19.97;49.21;100605.28;6055459;23;45918;-76
2022/05/11 04:02:34;;;;;;;;;11.00;9.00;;;;;19.96;49.29;100604.44;6031838;23;45592;-76
2022/05/11 04:05:00;;;;;;;;;11.50;10.75;;;;;19.95;49.17;100597.44;6057028;23;46232;-77
2022/05/11 04:07:25;;;;;;;;;12.00;11.75;;;;;19.97;49.35;100603.41;6056277;23;45888;-76
2022/05/11 04:09:51;;;;;;;;;10.75;9.50;;;;;19.97;49.07;100597.28;6072917;23;45535;-76
2022/05/11 04:12:16;;;;;;;;;11.25;11.00;;;;;19.97;49.28;100599.94;6115757;23;45660;-76
2022/05/11 04:14:42;;;;;;;;;10.50;9.75;;;;;20.00;49.53;100599.59;6114843;23;48187;-76
2022/05/11 04:17:12;;;;;;;;;11.00;10.25;;;;;19.95;49.69;100600.09;6243984;22;46923;-76
2022/05/11 04:19:37;;;;;;;;;10.00;9.50;;;;;19.92;49.46;100600.44;6241443;22;45729;-76
2022/05/11 04:22:03;;;;;;;;;10.00;10.00;;;;;19.89;49.56;100611.41;6269711;22;45482;-76
2022/05/11 04:24:28;;;;;;;;;11.25;11.00;;;;;19.91;49.64;100614.75;6269739;22;46334;-76
2022/05/11 04:26:53;;;;;;;;;8.25;8.00;;;;;19.85;49.69;100609.28;6242271;22;46821;-76
2022/05/11 04:29:19;;;;;;;;;12.25;12.25;;;;;19.88;49.65;100609.75;6268527;22;45944;-76
2022/05/11 04:31:45;;;;;;;;;9.75;9.00;;;;;19.85;49.29;100606.63;6270291;22;46048;-76
2022/05/11 04:34:13;;;;;;;;;11.00;11.00;;;;;19.86;49.57;100608.28;6269681;22;46479;-76
2022/05/11 04:36:39;;;;;;;;;10.75;10.75;;;;;19.84;49.75;100611.09;6269504;22;46069;-76
2022/05/11 04:39:06;;;;;;;;;11.00;11.00;;;;;19.83;49.96;100606.78;6216003;22;45959;-76
2022/05/11 04:41:32;;;;;;;;;9.25;9.25;;;;;19.83;49.62;100613.91;6270461;22;45533;-77
2022/05/11 04:43:57;;;;;;;;;11.75;11.00;;;;;19.77;50.17;100601.28;6269885;22;46465;-77
2022/05/11 04:46:23;;;;;;;;;12.75;10.25;;;;;19.81;49.50;100613.28;6257341;22;45646;-77
2022/05/11 04:48:48;;;;;;;;;12.50;12.00;;;;;19.83;49.61;100606.78;6300313;22;45542;-77
2022/05/11 04:51:36;;;;;;;;;11.75;10.00;;;;;19.85;49.77;100606.63;6301130;22;45468;-76
2022/05/11 04:54:02;;;;;;;;;12.25;11.00;;;;;19.86;49.48;100605.63;6272724;22;46654;-77
2022/05/11 04:56:27;;;;;;;;;11.75;11.00;;;;;19.81;49.61;100595.47;6300813;22;45532;-77
2022/05/11 04:58:57;;;;;;;;;10.50;9.75;;;;;19.83;49.48;100600.63;6300604;22;45639;-77
2022/05/11 05:01:24;;;;;;;;;12.25;11.75;;;;;19.84;49.61;100605.78;6301499;22;45583;-76
2022/05/11 05:03:50;;;;;;;;;11.50;10.00;;;;;19.81;49.59;100606.09;6273795;22;45707;-77
2022/05/11 05:07:09;;;;;;;;;10.75;10.50;;;;;19.78;49.60;100605.63;6272946;22;47360;-77
2022/05/11 05:09:35;;;;;;;;;10.00;10.00;;;;;19.64;49.53;100594.69;6144728;22;45784;-78
2022/05/11 05:12:01;;;;;;;;;12.75;12.00;;;;;19.65;49.36;100609.63;6145945;23;45762;-78
2022/05/11 05:14:27;;;;;;;;;14.25;11.75;;;;;19.58;49.65;100611.31;6144625;23;45624;-75
2022/05/11 05:16:52;;;;;;;;;11.00;10.75;;;;;19.54;49.35;100609.94;6119639;23;46474;-76
2022/05/11 05:19:18;;;;;;;;;12.75;12.50;;;;;19.47;49.85;100600.16;6146934;22;45606;-76
2022/05/11 05:22:03;;;;;;;;;9.75;9.75;;;;;19.45;49.76;100596.84;6144910;23;45726;-76
2022/05/11 05:24:31;;;;;;;;;13.00;11.00;;;;;19.45;49.89;100596.84;6145138;23;46515;-77
2022/05/11 05:26:57;;;;;;;;;12.00;10.50;;;;;19.43;49.71;100609.44;6145011;23;47000;-77
2022/05/11 05:32:07;;;;;;;;;13.75;11.25;;;;;19.52;49.69;100613.78;6144738;23;45632;-76
2022/05/11 05:34:32;;;;;;;;;12.25;12.00;;;;;19.49;49.61;100604.31;6145486;23;45734;-75
2022/05/11 05:36:58;;;;;;;;;11.25;11.25;;;;;19.50;49.77;100605.97;6119550;23;46334;-78
2022/05/11 05:39:23;;;;;;;;;10.25;10.25;;;;;19.50;49.55;100607.78;6144601;23;45897;-77
2022/05/11 05:41:48;;;;;;;;;11.75;9.25;;;;;19.44;49.46;100600.44;6119834;23;45871;-76
2022/05/11 05:44:14;;;;;;;;;11.00;11.00;;;;;19.40;49.83;100613.25;6144627;23;46185;-76
2022/05/11 05:46:39;;;;;;;;;11.75;10.50;;;;;19.36;49.58;100608.44;6290171;22;46162;-76
2022/05/11 05:49:05;;;;;;;;;13.50;9.75;;;;;19.37;49.49;100615.41;6299748;22;45833;-76
2022/05/11 05:51:31;;;;;;;;;13.75;11.50;;;;;19.36;49.72;100617.25;6300258;22;45629;-77
2022/05/11 05:53:57;;;;;;;;;11.00;10.00;;;;;19.37;50.04;100618.91;6299701;22;45630;-75
2022/05/11 05:56:23;;;;;;;;;10.25;10.00;;;;;19.39;49.55;100621.38;6300075;22;45626;-76
2022/05/11 05:58:49;;;;;;;;;10.00;9.00;;;;;19.41;49.69;100625.56;6271691;22;46704;-76
2022/05/11 06:01:16;;;;;;;;;11.50;11.25;;;;;19.39;49.40;100616.06;6301089;22;45744;-77
2022/05/11 06:03:44;;;;;;;;;12.25;11.00;;;;;19.41;49.56;100622.88;6300197;22;45756;-75
2022/05/11 06:06:10;;;;;;;;;11.50;9.75;;;;;19.40;49.21;100620.38;6300062;22;45704;-75
2022/05/11 06:08:37;;;;;;;;;10.00;10.00;;;;;19.41;49.49;100630.03;6300415;22;46103;-75
2022/05/11 06:11:04;;;;;;;;;5.50;5.00;;;;;19.41;49.46;100628.22;6300101;22;45456;-75
2022/05/11 06:13:29;;;;;;;;;13.25;12.00;;;;;19.43;49.31;100628.88;6300755;22;45678;-76
2022/05/11 06:15:55;;;;;;;;;11.25;11.00;;;;;19.38;49.55;100622.41;6300866;22;46046;-77
2022/05/11 06:18:23;;;;;;;;;10.75;10.00;;;;;19.38;49.17;100625.84;6301861;22;45689;-75
2022/05/11 06:20:51;;;;;;;;;11.25;11.00;;;;;19.37;49.21;100621.56;6300876;22;45576;-75
2022/05/11 06:23:20;;;;;;;;;11.00;10.00;;;;;19.36;49.56;100616.41;6302208;22;45618;-76
2022/05/11 06:25:49;;;;;;;;;10.25;9.25;;;;;19.40;49.42;100620.38;6301763;22;45653;-77
2022/05/11 06:28:15;;;;;;;;;10.00;10.00;;;;;19.39;49.53;100624.88;6299653;22;45847;-78
2022/05/11 06:30:40;;;;;;;;;11.00;9.00;;;;;19.39;49.21;100616.06;6298152;22;45545;-78
2022/05/11 06:33:06;;;;;;;;;10.25;10.00;;;;;19.43;49.13;100620.06;6302705;22;45754;-79
2022/05/11 06:35:32;;;;;;;;;10.00;9.00;;;;;19.47;48.79;100624.09;6274511;22;48285;-78
2022/05/11 06:38:05;;;;;;;;;11.00;10.75;;;;;19.49;48.86;100624.72;6301729;22;45626;-79
2022/05/11 06:40:31;;;;;;;;;12.75;11.75;;;;;19.44;49.26;100617.22;6301135;22;45772;-80
2022/05/11 06:42:56;;;;;;;;;12.50;11.00;;;;;19.49;49.04;100622.06;6302583;22;45627;-83
2022/05/11 06:45:23;;;;;;;;;9.00;8.75;;;;;19.47;49.24;100610.81;6300435;22;46070;-77
2022/05/11 06:47:49;;;;;;;;;13.00;10.00;;;;;19.50;48.87;100618.44;6301804;22;45846;-83
2022/05/11 06:50:15;;;;;;;;;11.00;10.50;;;;;19.54;48.86;100627.75;6300331;22;46078;-80
2022/05/11 06:52:40;;;;;;;;;12.75;10.75;;;;;19.49;48.78;100606.13;6300755;22;46353;-80
2022/05/11 07:00:35;;;;;;;;;11.50;11.00;;;;;19.51;48.68;100618.28;6299760;22;45839;-81
2022/05/11 07:03:01;;;;;;;;;11.50;10.25;;;;;19.48;48.72;100615.97;6300591;22;45587;-81
2022/05/11 07:05:29;;;;;;;;;10.00;9.00;;;;;19.53;48.71;100610.13;6300616;22;45675;-82
2022/05/11 07:07:54;;;;;;;;;10.00;8.50;;;;;19.55;48.49;100621.41;6300594;22;45698;-82
2022/05/11 07:10:20;;;;;;;;;9.00;8.00;;;;;19.47;48.17;100614.28;6299641;22;45508;-78
2022/05/11 07:12:46;;;;;;;;;8.00;8.00;;;;;19.54;48.44;100619.78;6271949;22;48234;-81
2022/05/11 07:15:14;;;;;;;;;7.25;7.00;;;;;19.56;48.71;100623.91;6299530;22;45947;-82
2022/05/11 07:17:45;;;;;;;;;6.50;5.50;;;;;19.56;48.19;100623.09;6300004;22;45614;-81
2022/05/11 07:20:18;;;;;;;;;8.00;7.25;;;;;19.54;48.02;100628.56;6300177;22;45966;-78
2022/05/11 07:22:44;;;;;;;;;5.00;5.00;;;;;19.45;48.08;100607.47;6301666;22;45669;-79
2022/05/11 07:25:48;;;;;;;;;8.00;8.00;;;;;19.47;48.10;100614.28;6301157;22;46064;-79
2022/05/11 07:28:15;;;;;;;;;9.75;8.25;;;;;19.39;48.62;100608.09;6300169;22;45534;-76
2022/05/11 07:30:45;;;;;;;;;8.75;8.75;;;;;19.48;48.74;100615.13;6300404;22;45526;-79
2022/05/11 07:33:11;;;;;;;;;9.25;8.25;;;;;19.53;48.64;100618.94;6301302;22;46472;-78
2022/05/11 07:35:36;;;;;;;;;9.25;9.00;;;;;19.57;48.56;100619.44;6300580;22;45994;-79
2022/05/11 07:38:07;;;;;;;;;8.00;7.50;;;;;19.60;48.25;100619.91;6300438;22;45499;-77
2022/05/11 07:40:33;;;;;;;;;9.00;8.00;;;;;19.60;48.09;100609.28;6301426;22;45525;-80
2022/05/11 07:43:00;;;;;;;;;7.75;7.75;;;;;19.66;47.99;100613.09;6301747;22;46406;-78
2022/05/11 07:45:26;;;;;;;;;7.00;7.00;;;;;19.74;47.85;100629.06;6300248;22;46029;-81
2022/05/11 07:47:51;;;;;;;;;7.00;6.25;;;;;19.67;47.81;100606.78;6272644;22;45581;-79
2022/05/11 07:50:17;;;;;;;;;7.25;7.00;;;;;19.82;47.72;100622.88;6302060;22;45689;-82
2022/05/11 07:52:44;;;;;;;;;10.00;7.00;;;;;19.78;47.83;100617.09;6301877;22;46532;-79
2022/05/11 07:55:10;;;;;;;;;8.00;7.25;;;;;19.89;47.93;100634.53;6299977;22;46023;-78
2022/05/11 08:01:29;;;;;;;;;6.50;6.00;;;;;20.00;46.65;100620.88;6144431;23;45795;-81
2022/05/11 08:03:55;;;;;;;;;5.50;5.50;;;;;19.91;46.71;100604.13;6145901;23;48497;-82
2022/05/11 08:06:26;;;;;;;;;8.00;7.75;;;;;19.93;46.15;100604.75;6143427;23;45612;-76
2022/05/11 08:08:51;;;;;;;;;4.00;4.00;;;;;20.00;45.86;100616.38;6143975;23;45709;-77
2022/05/11 08:11:17;;;;;;;;;6.00;5.00;;;;;20.08;45.54;100619.00;6145377;23;45666;-78
2022/05/11 08:13:42;;;;;;;;;5.75;5.25;;;;;20.19;45.53;100625.00;6146522;23;45693;-78
2022/05/11 08:16:07;;;;;;;;;5.00;4.25;;;;;20.25;45.91;100629.59;6146439;23;45759;-78
2022/05/11 08:19:09;;;;;;;;;5.00;5.00;;;;;20.19;45.70;100609.84;6120311;23;45919;-75
2022/05/11 08:21:25;;;;;;;;;4.75;4.75;;;;;20.19;44.61;100588.56;6140616;23;45507;-76
2022/05/11 08:23:51;;;;;;;;;5.75;5.75;;;;;20.22;44.83;100587.41;6121111;23;46443;-79
2022/05/11 08:26:16;;;;;;;;;5.25;4.00;;;;;20.37;44.97;100605.16;6120233;23;46505;-76
2022/05/11 08:28:42;;;;;;;;;3.00;3.00;;;;;20.52;44.67;100626.56;6146416;23;45561;-78
2022/05/11 08:34:06;;;;;;;;;4.00;4.00;;;;;20.52;44.52;100615.91;6146762;23;45559;-82
2022/05/11 08:36:31;;;;;;;;;3.25;3.25;;;;;20.59;43.48;100608.91;6164298;22;46040;-77
2022/05/11 08:39:00;;;;;;;;;5.00;5.00;;;;;20.68;42.94;100623.81;6272684;22;45759;-77
2022/05/11 08:48:35;;;;;;;;;4.00;3.75;;;;;20.85;42.25;100622.72;6202867;22;46042;-77
2022/05/11 08:51:49;;;;;;;;;2.75;2.75;;;;;20.79;41.84;100615.44;6183002;22;45564;-75
2022/05/11 08:54:59;;;;;;;;;4.25;4.25;;;;;20.90;42.70;100625.69;6151878;23;45837;-76
2022/05/11 08:57:26;;;;;;;;;4.25;4.25;;;;;20.92;42.64;100618.38;6034963;23;45761;-75
2022/05/11 09:02:55;;;;;;;;;3.50;3.50;;;;;21.07;42.54;100618.44;6059331;23;45851;-78
2022/05/11 09:05:28;;;;;;;;;3.25;3.00;;;;;21.09;41.99;100620.94;6059715;23;45489;-78
2022/05/11 09:07:55;;;;;;;;;3.25;3.25;;;;;21.18;41.53;100627.88;6059249;23;45650;-76
2022/05/11 09:10:32;;;;;;;;;3.00;3.00;;;;;21.11;40.67;100597.59;6034314;23;48320;-80
2022/05/11 09:13:07;;;;;;;;;2.25;2.25;;;;;21.23;40.16;100620.19;6059806;23;45600;-76
2022/05/11 09:18:56;;;;;;;;;3.25;3.25;;;;;21.37;40.00;100616.78;6059028;23;45621;-76
2022/05/11 09:21:33;;;;;;;;;4.50;3.75;;;;;21.41;40.40;100626.06;6093000;23;47249;-76
2022/05/11 09:24:04;;;;;;;;;3.50;2.75;;;;;21.44;40.12;100627.53;6118155;23;45623;-76
2022/05/11 09:26:34;;;;;;;;;5.00;3.00;;;;;21.49;40.05;100625.16;6118018;23;45820;-75
2022/05/11 09:29:49;;;;;;;;;3.25;3.00;;;;;21.57;39.11;100630.44;6117633;23;45808;-77
2022/05/11 09:35:48;;;;;;;;;2.25;2.25;;;;;21.64;38.80;100615.38;6272378;22;45655;-75
2022/05/11 09:38:20;;;;;;;;;2.00;2.00;;;;;21.73;39.33;100617.78;6244705;22;45453;-76
2022/05/11 09:40:59;;;;;;;;;4.25;3.00;;;;;21.77;38.71;100624.41;6272634;22;46678;-76
2022/05/11 09:43:27;;;;;;;;;2.25;2.00;;;;;21.81;38.95;100616.06;6272547;22;45576;-77
2022/05/11 09:45:56;;;;;;;;;3.00;3.00;;;;;21.81;38.61;100600.06;6273202;22;45593;-76
2022/05/11 09:48:25;;;;;;;;;3.00;3.00;;;;;21.85;37.89;100609.34;6294215;22;45475;-75
2022/05/11 09:50:55;;;;;;;;;2.00;2.00;;;;;21.96;37.46;100619.59;6303433;22;46612;-76
2022/05/11 09:53:24;;;;;;;;;3.00;3.00;;;;;21.99;37.97;100606.72;6303115;22;46031;-77
2022/05/11 09:55:50;;;;;;;;;3.00;3.00;;;;;22.02;37.52;100605.53;6274976;22;46090;-77
2022/05/11 09:58:27;;;;;;;;;4.50;3.00;;;;;22.07;37.98;100606.66;6303311;22;45896;-75
2022/05/11 10:00:53;;;;;;;;;4.50;4.00;;;;;22.10;37.81;100603.59;6274716;22;47730;-76
2022/05/11 10:03:29;;;;;;;;;1.00;1.00;;;;;22.17;38.52;100601.03;6302917;22;45835;-77
2022/05/11 10:06:18;;;;;;;;;4.00;3.75;;;;;22.22;38.41;100597.81;6303000;22;45606;-77
2022/05/11 10:11:50;;;;;;;;;2.50;2.25;;;;;22.23;37.79;100586.94;6302727;22;46041;-78
2022/05/11 10:23:22;;;;;;;;;3.00;3.00;;;;;22.48;38.07;100611.50;6146816;23;46073;-79
2022/05/11 10:26:43;;;;;;;;;3.00;3.00;;;;;22.52;38.05;100612.78;6146615;23;45973;-81
2022/05/11 10:29:34;;;;;;;;;3.25;2.00;;;;;22.55;38.53;100604.41;6146351;23;45589;-79
2022/05/11 10:39:02;;;;;;;;;2.00;2.00;;;;;22.48;38.27;100579.44;6146666;23;45811;-80
2022/05/11 10:42:16;;;;;;;;;3.75;3.00;;;;;22.46;38.81;100582.31;6147928;23;45610;-81
2022/05/11 10:48:32;;;;;;;;;3.00;2.75;;;;;22.78;38.77;100604.31;6004245;23;45929;-79
2022/05/11 10:57:46;;;;;;;;;4.25;3.00;;;;;22.88;38.69;100619.00;5973347;23;45848;-80
2022/05/11 11:00:18;;;;;;;;;3.00;2.75;;;;;22.85;39.23;100598.00;5973047;23;46516;-81
2022/05/11 11:03:23;;;;;;;;;2.25;2.25;;;;;22.94;39.29;100586.16;5972944;23;45571;-80
2022/05/11 11:09:14;;;;;;;;;3.00;3.00;;;;;23.00;39.61;100593.44;5973261;23;45567;-80
2022/05/11 11:11:45;;;;;;;;;3.00;3.00;;;;;23.01;39.52;100596.94;5972501;23;45871;-80
2022/05/11 11:15:08;;;;;;;;;;;;;;;;;;;;;
2022/05/11 11:17:35;;;;;;;;;2.00;2.00;;;;;23.05;39.33;100586.72;5832698;24;73101;-79
2022/05/11 11:40:13;;;;;;;;;1.75;1.75;;;;;23.33;38.18;100567.00;6268937;22;45740;-86
2022/05/11 11:42:46;;;;;;;;;2.00;2.00;;;;;23.34;38.88;100557.97;6240497;22;45604;-83
2022/05/11 11:45:31;;;;;;;;;2.00;2.00;;;;;23.43;38.16;100555.97;6240765;22;46415;-81
2022/05/11 11:48:24;;;;;;;;;3.75;3.00;;;;;23.50;38.24;100559.56;6268252;22;46383;-83
2022/05/11 11:51:00;;;;;;;;;3.00;2.00;;;;;23.52;37.75;100549.50;6222068;22;47935;-82
2022/05/11 11:53:53;;;;;;;;;2.00;2.00;;;;;23.54;38.16;100536.75;6241317;22;45721;-81
2022/05/11 11:56:24;;;;;;;;;3.00;3.00;;;;;23.61;38.44;100550.19;6240836;22;45627;-80
2022/05/11 11:59:24;;;;;;;;;2.25;2.00;;;;;23.55;37.43;100535.75;6268078;22;45602;-81
2022/05/11 12:01:55;;;;;;;;;2.00;2.00;;;;;23.67;37.62;100539.53;6268357;22;46483;-83
2022/05/11 12:04:35;;;;;;;;;3.50;3.00;;;;;23.71;37.54;100543.47;6268407;22;45665;-78
2022/05/11 12:15:33;;;;;;;;;3.00;2.00;;;;;23.89;38.22;100558.19;6268907;22;45658;-80
2022/05/11 12:18:00;;;;;;;;;3.00;3.00;;;;;23.91;38.03;100559.66;6268125;22;45523;-80
2022/05/11 12:20:39;;;;;;;;;2.00;1.50;;;;;23.92;37.68;100549.75;6268030;22;46525;-79
2022/05/11 12:23:17;;;;;;;;;2.00;2.00;;;;;23.95;37.48;100541.34;6268291;22;45845;-77
2022/05/11 12:25:55;;;;;;;;;2.00;2.00;;;;;23.97;37.95;100548.16;6269750;22;46015;-78
2022/05/11 12:28:29;;;;;;;;;3.00;3.00;;;;;24.04;37.84;100549.00;6269740;22;45479;-76
2022/05/11 12:30:55;;;;;;;;;2.75;2.00;;;;;24.03;37.95;100542.00;6269298;22;45409;-77
2022/05/11 12:33:39;;;;;;;;;2.00;2.00;;;;;24.12;37.80;100548.88;6269470;22;45560;-77
2022/05/11 12:36:05;;;;;;;;;2.00;2.00;;;;;24.16;38.08;100538.56;6240928;22;45496;-78
2022/05/11 12:38:40;;;;;;;;;3.00;3.00;;;;;24.18;38.09;100528.53;6238353;22;45723;-79
2022/05/11 12:41:18;;;;;;;;;4.00;2.25;;;;;24.22;37.32;100527.94;6238256;22;45970;-78
2022/05/11 12:44:12;;;;;;;;;1.50;0.50;;;;;24.31;37.12;100536.59;6238251;22;45862;-78
2022/05/11 12:46:42;;;;;;;;;2.50;2.00;;;;;24.31;37.47;100525.06;6233292;22;45617;-78
2022/05/11 12:49:13;;;;;;;;;3.00;2.00;;;;;24.34;37.08;100519.31;6237763;22;45634;-78
2022/05/11 12:51:49;;;;;;;;;1.50;1.50;;;;;24.38;37.62;100536.63;6238578;22;46663;-76
2022/05/11 12:54:22;;;;;;;;;2.00;1.00;;;;;24.38;37.74;100537.47;6238596;22;45496;-79
2022/05/11 12:57:13;;;;;;;;;1.75;1.00;;;;;24.44;37.58;100527.81;6238444;22;45690;-77
2022/05/11 12:59:49;;;;;;;;;1.00;1.00;;;;;24.42;37.76;100529.84;6237354;22;45760;-78
2022/05/11 13:02:27;;;;;;;;;1.50;1.25;;;;;24.46;37.34;100537.28;6238312;22;46354;-78
2022/05/11 13:04:58;;;;;;;;;1.00;1.00;;;;;24.44;37.64;100536.66;6238709;22;45853;-78
2022/05/11 13:07:30;;;;;;;;;1.50;1.50;;;;;24.47;37.70;100540.78;6239004;22;45651;-76
2022/05/11 13:10:00;;;;;;;;;2.50;1.50;;;;;24.44;37.86;100534.00;6238544;22;45553;-77
2022/05/11 13:12:28;;;;;;;;;3.50;2.00;;;;;24.52;37.40;100527.63;6238296;22;45598;-77
2022/05/11 13:14:56;;;;;;;;;1.25;1.25;;;;;24.54;37.85;100550.50;6238882;22;45804;-77
2022/05/11 13:17:24;;;;;;;;;1.00;1.00;;;;;24.57;37.97;100565.34;6238094;22;45580;-77
2022/05/11 13:20:03;;;;;;;;;1.00;1.00;;;;;24.56;38.15;100535.03;6237206;22;45617;-77
2022/05/11 13:22:29;;;;;;;;;1.00;1.00;;;;;24.59;38.09;100539.19;6238103;22;45498;-78
2022/05/11 13:25:01;;;;;;;;;1.00;1.00;;;;;24.61;37.95;100531.78;6238930;22;46165;-78
2022/05/11 13:27:48;;;;;;;;;2.00;1.25;;;;;24.64;38.17;100531.34;6238942;22;45871;-78
2022/05/11 13:30:32;;;;;;;;;1.25;1.25;;;;;24.70;38.38;100548.50;6209350;22;45803;-78
2022/05/11 13:33:24;;;;;;;;;0.00;0.00;;;;;24.71;37.77;100537.56;6238003;22;46353;-78
2022/05/11 13:36:14;;;;;;;;;0.25;0.25;;;;;24.73;37.83;100523.94;6237373;22;46177;-77
2022/05/11 13:38:52;;;;;;;;;0.75;0.75;;;;;24.77;37.80;100535.94;6237482;22;45581;-78
2022/05/11 13:41:24;;;;;;;;;1.00;1.00;;;;;24.79;38.22;100523.13;6238968;22;45592;-77
2022/05/11 13:43:56;;;;;;;;;1.00;1.00;;;;;24.81;37.89;100524.59;6210576;22;48303;-77
2022/05/11 13:46:37;;;;;;;;;2.00;1.00;;;;;24.88;37.62;100511.25;6238679;22;46282;-78
2022/05/11 13:49:31;;;;;;;;;1.00;1.00;;;;;24.92;37.61;100525.88;6237237;22;45581;-78
2022/05/11 13:51:58;;;;;;;;;0.50;0.50;;;;;24.95;37.68;100526.28;6211294;22;45903;-78
2022/05/11 13:54:26;;;;;;;;;1.00;1.00;;;;;24.98;38.00;100522.38;6238562;22;45904;-78
2022/05/11 13:57:02;;;;;;;;;0.25;0.25;;;;;24.97;37.67;100502.78;6238830;22;45733;-79
2022/05/11 13:59:29;;;;;;;;;0.00;0.00;;;;;24.98;37.90;100519.72;6237624;22;45517;-79
2022/05/11 14:01:56;;;;;;;;;1.00;1.00;;;;;25.00;37.69;100523.81;6238427;22;45637;-77
2022/05/11 14:04:33;;;;;;;;;1.00;0.25;;;;;25.07;37.71;100515.78;6238686;22;47111;-78
2022/05/11 14:07:18;;;;;;;;;1.50;0.75;;;;;25.13;37.90;100514.97;6238830;22;45569;-77
2022/05/11 14:09:44;;;;;;;;;1.75;1.25;;;;;25.17;37.92;100515.38;6234869;22;45835;-78
2022/05/11 14:12:10;;;;;;;;;1.75;1.00;;;;;25.19;38.08;100494.56;6238497;22;45511;-79